sensor_id;sensor_type;location;lat;lon;timestamp;P1;durP1;ratioP1;P2;durP2;ratioP2
68076;SDS011;54866;53.458;14.540;2022-12-10T00:27:48;7.30;;;4.80;;
68076;SDS011;54866;53.458;14.540;2022-12-10T00:30:18;6.90;;;4.60;;
68076;SDS011;54866;53.458;14.540;2022-12-10T00:32:48;7.80;;;5.40;;
68076;SDS011;54866;53.458;14.540;2022-12-10T00:35:18;8.10;;;5.50;;
68076;SDS011;54866;53.458;14.540;2022-12-10T00:37:48;8.90;;;5.30;;
68076;SDS011;54866;53.458;14.540;2022-12-10T00:40:18;8.40;;;4.80;;
68076;SDS011;54866;53.458;14.540;2022-12-10T00:42:48;8.40;;;5.10;;
68076;SDS011;54866;53.458;14.540;2022-12-10T00:45:18;6.80;;;4.10;;
68076;SDS011;54866;53.458;14.540;2022-12-10T00:47:48;7.30;;;4.20;;
68076;SDS011;54866;53.458;14.540;2022-12-10T00:50:17;6.10;;;4.20;;
68076;SDS011;54866;53.458;14.540;2022-12-10T00:52:47;5.90;;;3.90;;
68076;SDS011;54866;53.458;14.540;2022-12-10T00:55:17;5.10;;;3.20;;
68076;SDS011;54866;53.458;14.540;2022-12-10T00:57:47;7.50;;;4.50;;
68076;SDS011;54866;53.458;14.540;2022-12-10T01:00:17;6.30;;;4.60;;
68076;SDS011;54866;53.458;14.540;2022-12-10T01:02:47;7.60;;;4.70;;
68076;SDS011;54866;53.458;14.540;2022-12-10T01:05:16;7.80;;;5.00;;
68076;SDS011;54866;53.458;14.540;2022-12-10T01:07:46;5.70;;;3.40;;
68076;SDS011;54866;53.458;14.540;2022-12-10T01:10:18;3.60;;;3.00;;
68076;SDS011;54866;53.458;14.540;2022-12-10T01:12:48;7.10;;;4.50;;
68076;SDS011;54866;53.458;14.540;2022-12-10T01:15:18;6.80;;;4.50;;
68076;SDS011;54866;53.458;14.540;2022-12-10T01:17:48;8.60;;;3.70;;
68076;SDS011;54866;53.458;14.540;2022-12-10T01:20:18;7.20;;;5.10;;
68076;SDS011;54866;53.458;14.540;2022-12-10T01:22:47;6.80;;;4.30;;
68076;SDS011;54866;53.458;14.540;2022-12-10T01:25:17;7.60;;;4.20;;
68076;SDS011;54866;53.458;14.540;2022-12-10T01:27:47;7.20;;;4.20;;
68076;SDS011;54866;53.458;14.540;2022-12-10T01:30:17;5.90;;;4.10;;
68076;SDS011;54866;53.458;14.540;2022-12-10T01:32:47;5.90;;;4.30;;
68076;SDS011;54866;53.458;14.540;2022-12-10T01:35:17;7.10;;;4.80;;
68076;SDS011;54866;53.458;14.540;2022-12-10T01:37:47;4.90;;;3.80;;
68076;SDS011;54866;53.458;14.540;2022-12-10T01:40:17;7.00;;;4.30;;
68076;SDS011;54866;53.458;14.540;2022-12-10T01:42:47;5.10;;;3.10;;
68076;SDS011;54866;53.458;14.540;2022-12-10T01:45:17;5.30;;;3.70;;
68076;SDS011;54866;53.458;14.540;2022-12-10T01:47:47;8.00;;;4.20;;
68076;SDS011;54866;53.458;14.540;2022-12-10T01:50:17;5.80;;;4.00;;
68076;SDS011;54866;53.458;14.540;2022-12-10T01:52:47;5.80;;;3.70;;
68076;SDS011;54866;53.458;14.540;2022-12-10T01:58:06;6.10;;;3.30;;
68076;SDS011;54866;53.458;14.540;2022-12-10T02:00:38;8.00;;;4.50;;
68076;SDS011;54866;53.458;14.540;2022-12-10T02:03:13;5.70;;;3.10;;
68076;SDS011;54866;53.458;14.540;2022-12-10T02:05:48;5.70;;;4.00;;
68076;SDS011;54866;53.458;14.540;2022-12-10T02:08:26;6.10;;;4.40;;
68076;SDS011;54866;53.458;14.540;2022-12-10T02:11:06;6.80;;;5.20;;
68076;SDS011;54866;53.458;14.540;2022-12-10T02:13:45;4.70;;;4.00;;
68076;SDS011;54866;53.458;14.540;2022-12-10T02:16:21;5.00;;;3.00;;
68076;SDS011;54866;53.458;14.540;2022-12-10T02:18:58;6.90;;;4.80;;
68076;SDS011;54866;53.458;14.540;2022-12-10T02:21:36;6.00;;;4.20;;
68076;SDS011;54866;53.458;14.540;2022-12-10T02:24:13;5.70;;;3.50;;
68076;SDS011;54866;53.458;14.540;2022-12-10T02:26:48;7.30;;;4.90;;
68076;SDS011;54866;53.458;14.540;2022-12-10T02:29:25;7.10;;;3.90;;
68076;SDS011;54866;53.458;14.540;2022-12-10T02:32:00;8.80;;;5.50;;
68076;SDS011;54866;53.458;14.540;2022-12-10T02:34:33;8.20;;;5.30;;
68076;SDS011;54866;53.458;14.540;2022-12-10T02:37:07;6.40;;;4.30;;
68076;SDS011;54866;53.458;14.540;2022-12-10T02:39:44;5.70;;;4.50;;
68076;SDS011;54866;53.458;14.540;2022-12-10T02:42:17;7.20;;;5.10;;
68076;SDS011;54866;53.458;14.540;2022-12-10T02:44:49;7.90;;;5.30;;
68076;SDS011;54866;53.458;14.540;2022-12-10T02:47:20;7.70;;;4.00;;
68076;SDS011;54866;53.458;14.540;2022-12-10T02:49:51;7.80;;;4.30;;
68076;SDS011;54866;53.458;14.540;2022-12-10T02:52:24;8.90;;;5.50;;
68076;SDS011;54866;53.458;14.540;2022-12-10T02:54:54;9.40;;;5.60;;
68076;SDS011;54866;53.458;14.540;2022-12-10T02:57:35;8.30;;;4.10;;
68076;SDS011;54866;53.458;14.540;2022-12-10T03:00:12;8.60;;;5.70;;
68076;SDS011;54866;53.458;14.540;2022-12-10T03:02:49;7.90;;;4.80;;
68076;SDS011;54866;53.458;14.540;2022-12-10T03:05:35;7.60;;;4.90;;
68076;SDS011;54866;53.458;14.540;2022-12-10T03:08:14;9.10;;;6.20;;
68076;SDS011;54866;53.458;14.540;2022-12-10T03:10:52;7.70;;;5.20;;
68076;SDS011;54866;53.458;14.540;2022-12-10T03:13:27;10.00;;;5.60;;
68076;SDS011;54866;53.458;14.540;2022-12-10T03:16:00;8.40;;;6.20;;
68076;SDS011;54866;53.458;14.540;2022-12-10T03:18:34;8.60;;;5.50;;
68076;SDS011;54866;53.458;14.540;2022-12-10T03:21:05;8.50;;;6.00;;
68076;SDS011;54866;53.458;14.540;2022-12-10T03:23:37;8.00;;;5.70;;
68076;SDS011;54866;53.458;14.540;2022-12-10T03:26:13;6.50;;;4.20;;
68076;SDS011;54866;53.458;14.540;2022-12-10T03:28:45;6.90;;;4.50;;
68076;SDS011;54866;53.458;14.540;2022-12-10T03:31:17;8.80;;;5.60;;
68076;SDS011;54866;53.458;14.540;2022-12-10T03:33:48;7.60;;;5.90;;
68076;SDS011;54866;53.458;14.540;2022-12-10T03:36:19;11.40;;;7.10;;
68076;SDS011;54866;53.458;14.540;2022-12-10T03:38:50;7.70;;;5.20;;
68076;SDS011;54866;53.458;14.540;2022-12-10T03:41:21;8.60;;;6.10;;
68076;SDS011;54866;53.458;14.540;2022-12-10T03:43:51;9.10;;;6.30;;
68076;SDS011;54866;53.458;14.540;2022-12-10T03:46:23;8.50;;;6.10;;
68076;SDS011;54866;53.458;14.540;2022-12-10T03:48:55;9.80;;;5.90;;
68076;SDS011;54866;53.458;14.540;2022-12-10T03:51:25;8.50;;;6.20;;
68076;SDS011;54866;53.458;14.540;2022-12-10T03:53:55;8.40;;;5.60;;
68076;SDS011;54866;53.458;14.540;2022-12-10T03:56:25;11.50;;;5.70;;
68076;SDS011;54866;53.458;14.540;2022-12-10T03:58:54;9.30;;;5.50;;
68076;SDS011;54866;53.458;14.540;2022-12-10T04:01:24;9.60;;;6.00;;
68076;SDS011;54866;53.458;14.540;2022-12-10T04:03:54;11.10;;;7.10;;
68076;SDS011;54866;53.458;14.540;2022-12-10T04:06:24;9.70;;;5.60;;
68076;SDS011;54866;53.458;14.540;2022-12-10T04:08:53;9.60;;;5.90;;
68076;SDS011;54866;53.458;14.540;2022-12-10T04:11:23;8.70;;;6.00;;
68076;SDS011;54866;53.458;14.540;2022-12-10T04:13:53;10.60;;;7.30;;
68076;SDS011;54866;53.458;14.540;2022-12-10T04:16:41;10.20;;;6.60;;
68076;SDS011;54866;53.458;14.540;2022-12-10T04:19:11;10.20;;;6.20;;
68076;SDS011;54866;53.458;14.540;2022-12-10T04:21:43;13.40;;;7.40;;
68076;SDS011;54866;53.458;14.540;2022-12-10T04:24:31;10.60;;;7.10;;
68076;SDS011;54866;53.458;14.540;2022-12-10T04:27:20;6.70;;;4.10;;
68076;SDS011;54866;53.458;14.540;2022-12-10T04:29:51;12.40;;;7.70;;
68076;SDS011;54866;53.458;14.540;2022-12-10T04:32:22;8.80;;;5.60;;
68076;SDS011;54866;53.458;14.540;2022-12-10T04:34:53;10.90;;;7.00;;
68076;SDS011;54866;53.458;14.540;2022-12-10T04:37:23;8.20;;;6.10;;
68076;SDS011;54866;53.458;14.540;2022-12-10T04:39:53;8.60;;;5.80;;
68076;SDS011;54866;53.458;14.540;2022-12-10T04:42:23;11.30;;;6.10;;
68076;SDS011;54866;53.458;14.540;2022-12-10T04:44:53;8.90;;;5.50;;
68076;SDS011;54866;53.458;14.540;2022-12-10T04:47:23;8.80;;;6.00;;
68076;SDS011;54866;53.458;14.540;2022-12-10T04:49:53;8.80;;;5.60;;
68076;SDS011;54866;53.458;14.540;2022-12-10T04:52:22;6.90;;;4.20;;
68076;SDS011;54866;53.458;14.540;2022-12-10T04:54:52;23.50;;;6.80;;
68076;SDS011;54866;53.458;14.540;2022-12-10T04:57:22;7.20;;;5.10;;
68076;SDS011;54866;53.458;14.540;2022-12-10T04:59:51;7.40;;;4.70;;
68076;SDS011;54866;53.458;14.540;2022-12-10T05:02:21;6.70;;;5.00;;
68076;SDS011;54866;53.458;14.540;2022-12-10T05:04:51;6.90;;;4.50;;
68076;SDS011;54866;53.458;14.540;2022-12-10T05:07:21;7.30;;;4.20;;
68076;SDS011;54866;53.458;14.540;2022-12-10T05:09:50;7.80;;;5.30;;
68076;SDS011;54866;53.458;14.540;2022-12-10T05:12:20;8.80;;;5.50;;
68076;SDS011;54866;53.458;14.540;2022-12-10T05:14:50;9.70;;;6.00;;
68076;SDS011;54866;53.458;14.540;2022-12-10T05:17:19;7.80;;;5.00;;
68076;SDS011;54866;53.458;14.540;2022-12-10T05:19:49;7.20;;;4.70;;
68076;SDS011;54866;53.458;14.540;2022-12-10T05:22:19;6.50;;;4.40;;
68076;SDS011;54866;53.458;14.540;2022-12-10T05:25:06;4.00;;;2.50;;
68076;SDS011;54866;53.458;14.540;2022-12-10T05:27:36;10.20;;;5.20;;
68076;SDS011;54866;53.458;14.540;2022-12-10T05:30:08;7.80;;;5.60;;
68076;SDS011;54866;53.458;14.540;2022-12-10T05:32:38;7.60;;;4.00;;
68076;SDS011;54866;53.458;14.540;2022-12-10T05:35:08;7.10;;;4.90;;
68076;SDS011;54866;53.458;14.540;2022-12-10T05:37:38;8.70;;;6.00;;
68076;SDS011;54866;53.458;14.540;2022-12-10T05:40:08;6.50;;;4.40;;
68076;SDS011;54866;53.458;14.540;2022-12-10T05:42:39;7.80;;;5.40;;
68076;SDS011;54866;53.458;14.540;2022-12-10T05:45:10;8.70;;;6.00;;
68076;SDS011;54866;53.458;14.540;2022-12-10T05:47:39;8.10;;;5.30;;
68076;SDS011;54866;53.458;14.540;2022-12-10T05:50:09;9.60;;;5.40;;
68076;SDS011;54866;53.458;14.540;2022-12-10T05:52:39;8.60;;;5.50;;
68076;SDS011;54866;53.458;14.540;2022-12-10T05:55:09;7.10;;;4.60;;
68076;SDS011;54866;53.458;14.540;2022-12-10T05:57:39;7.70;;;5.40;;
68076;SDS011;54866;53.458;14.540;2022-12-10T06:00:10;8.30;;;5.30;;
68076;SDS011;54866;53.458;14.540;2022-12-10T06:02:41;10.30;;;7.00;;
68076;SDS011;54866;53.458;14.540;2022-12-10T06:05:10;8.00;;;5.00;;
68076;SDS011;54866;53.458;14.540;2022-12-10T06:07:40;7.80;;;5.40;;
68076;SDS011;54866;53.458;14.540;2022-12-10T06:10:10;10.50;;;6.10;;
68076;SDS011;54866;53.458;14.540;2022-12-10T06:12:40;9.30;;;4.00;;
68076;SDS011;54866;53.458;14.540;2022-12-10T06:15:12;8.90;;;5.30;;
68076;SDS011;54866;53.458;14.540;2022-12-10T06:17:42;10.00;;;6.60;;
68076;SDS011;54866;53.458;14.540;2022-12-10T06:20:12;11.20;;;6.10;;
68076;SDS011;54866;53.458;14.540;2022-12-10T06:22:42;10.30;;;4.90;;
68076;SDS011;54866;53.458;14.540;2022-12-10T06:25:12;10.00;;;6.10;;
68076;SDS011;54866;53.458;14.540;2022-12-10T06:27:41;8.30;;;5.30;;
68076;SDS011;54866;53.458;14.540;2022-12-10T06:30:11;8.70;;;5.20;;
68076;SDS011;54866;53.458;14.540;2022-12-10T06:32:41;10.40;;;6.70;;
68076;SDS011;54866;53.458;14.540;2022-12-10T06:35:11;10.60;;;7.30;;
68076;SDS011;54866;53.458;14.540;2022-12-10T06:37:41;9.00;;;4.40;;
68076;SDS011;54866;53.458;14.540;2022-12-10T06:40:11;11.40;;;6.80;;
68076;SDS011;54866;53.458;14.540;2022-12-10T06:42:41;8.70;;;6.10;;
68076;SDS011;54866;53.458;14.540;2022-12-10T06:45:11;9.30;;;5.80;;
68076;SDS011;54866;53.458;14.540;2022-12-10T06:47:40;10.40;;;6.70;;
68076;SDS011;54866;53.458;14.540;2022-12-10T06:50:10;11.40;;;6.80;;
68076;SDS011;54866;53.458;14.540;2022-12-10T06:52:40;8.20;;;5.80;;
68076;SDS011;54866;53.458;14.540;2022-12-10T06:55:10;11.20;;;6.30;;
68076;SDS011;54866;53.458;14.540;2022-12-10T06:57:40;8.10;;;5.60;;
68076;SDS011;54866;53.458;14.540;2022-12-10T07:00:10;9.70;;;6.90;;
68076;SDS011;54866;53.458;14.540;2022-12-10T07:02:42;9.80;;;7.10;;
68076;SDS011;54866;53.458;14.540;2022-12-10T07:05:11;9.60;;;6.40;;
68076;SDS011;54866;53.458;14.540;2022-12-10T07:07:41;8.90;;;5.90;;
68076;SDS011;54866;53.458;14.540;2022-12-10T07:10:12;12.70;;;6.10;;
68076;SDS011;54866;53.458;14.540;2022-12-10T07:12:42;9.40;;;5.60;;
68076;SDS011;54866;53.458;14.540;2022-12-10T07:15:12;9.40;;;6.80;;
68076;SDS011;54866;53.458;14.540;2022-12-10T07:17:42;9.60;;;6.00;;
68076;SDS011;54866;53.458;14.540;2022-12-10T07:20:12;8.00;;;4.90;;
68076;SDS011;54866;53.458;14.540;2022-12-10T07:22:41;8.30;;;5.90;;
68076;SDS011;54866;53.458;14.540;2022-12-10T07:25:11;10.40;;;5.70;;
68076;SDS011;54866;53.458;14.540;2022-12-10T07:27:41;10.70;;;7.00;;
68076;SDS011;54866;53.458;14.540;2022-12-10T07:30:11;13.50;;;6.90;;
68076;SDS011;54866;53.458;14.540;2022-12-10T07:32:41;8.60;;;6.10;;
68076;SDS011;54866;53.458;14.540;2022-12-10T07:35:11;13.60;;;7.10;;
68076;SDS011;54866;53.458;14.540;2022-12-10T07:37:41;9.20;;;6.20;;
68076;SDS011;54866;53.458;14.540;2022-12-10T07:40:11;11.70;;;6.70;;
68076;SDS011;54866;53.458;14.540;2022-12-10T07:42:42;10.70;;;6.20;;
68076;SDS011;54866;53.458;14.540;2022-12-10T07:45:11;9.80;;;6.20;;
68076;SDS011;54866;53.458;14.540;2022-12-10T07:47:41;9.10;;;6.30;;
68076;SDS011;54866;53.458;14.540;2022-12-10T07:50:11;10.20;;;6.60;;
68076;SDS011;54866;53.458;14.540;2022-12-10T07:52:41;10.30;;;6.50;;
68076;SDS011;54866;53.458;14.540;2022-12-10T07:55:10;10.50;;;6.90;;
68076;SDS011;54866;53.458;14.540;2022-12-10T07:57:40;8.60;;;5.60;;
68076;SDS011;54866;53.458;14.540;2022-12-10T08:00:11;10.40;;;5.80;;
68076;SDS011;54866;53.458;14.540;2022-12-10T08:02:42;9.40;;;5.80;;
68076;SDS011;54866;53.458;14.540;2022-12-10T08:05:11;9.30;;;5.90;;
68076;SDS011;54866;53.458;14.540;2022-12-10T08:07:41;10.20;;;7.00;;
68076;SDS011;54866;53.458;14.540;2022-12-10T08:10:11;7.90;;;5.60;;
68076;SDS011;54866;53.458;14.540;2022-12-10T08:12:41;10.50;;;6.10;;
68076;SDS011;54866;53.458;14.540;2022-12-10T08:15:10;9.30;;;7.20;;
68076;SDS011;54866;53.458;14.540;2022-12-10T08:17:40;10.60;;;6.90;;
68076;SDS011;54866;53.458;14.540;2022-12-10T08:20:10;8.10;;;5.00;;
68076;SDS011;54866;53.458;14.540;2022-12-10T08:22:40;9.50;;;5.80;;
68076;SDS011;54866;53.458;14.540;2022-12-10T08:25:11;9.30;;;5.80;;
68076;SDS011;54866;53.458;14.540;2022-12-10T08:27:41;10.10;;;6.50;;
68076;SDS011;54866;53.458;14.540;2022-12-10T08:30:12;8.50;;;5.40;;
68076;SDS011;54866;53.458;14.540;2022-12-10T08:32:42;11.40;;;7.30;;
68076;SDS011;54866;53.458;14.540;2022-12-10T08:35:12;14.00;;;8.10;;
68076;SDS011;54866;53.458;14.540;2022-12-10T08:37:42;12.20;;;7.50;;
68076;SDS011;54866;53.458;14.540;2022-12-10T08:40:12;9.90;;;5.60;;
68076;SDS011;54866;53.458;14.540;2022-12-10T08:42:41;10.30;;;5.70;;
68076;SDS011;54866;53.458;14.540;2022-12-10T08:45:11;10.40;;;6.60;;
68076;SDS011;54866;53.458;14.540;2022-12-10T08:47:41;9.50;;;6.30;;
68076;SDS011;54866;53.458;14.540;2022-12-10T08:50:11;13.20;;;7.40;;
68076;SDS011;54866;53.458;14.540;2022-12-10T08:52:41;12.20;;;7.60;;
68076;SDS011;54866;53.458;14.540;2022-12-10T08:55:10;11.10;;;6.70;;
68076;SDS011;54866;53.458;14.540;2022-12-10T08:57:40;12.10;;;7.70;;
68076;SDS011;54866;53.458;14.540;2022-12-10T09:00:12;15.10;;;8.00;;
68076;SDS011;54866;53.458;14.540;2022-12-10T09:02:42;14.00;;;8.10;;
68076;SDS011;54866;53.458;14.540;2022-12-10T09:05:12;10.00;;;5.10;;
68076;SDS011;54866;53.458;14.540;2022-12-10T09:07:42;13.80;;;8.90;;
68076;SDS011;54866;53.458;14.540;2022-12-10T09:10:12;7.70;;;5.50;;
68076;SDS011;54866;53.458;14.540;2022-12-10T09:12:42;12.30;;;7.30;;
68076;SDS011;54866;53.458;14.540;2022-12-10T09:15:11;13.10;;;7.10;;
68076;SDS011;54866;53.458;14.540;2022-12-10T09:17:41;19.70;;;12.10;;
68076;SDS011;54866;53.458;14.540;2022-12-10T09:20:11;13.20;;;6.80;;
68076;SDS011;54866;53.458;14.540;2022-12-10T09:22:42;10.70;;;6.40;;
68076;SDS011;54866;53.458;14.540;2022-12-10T09:25:12;11.50;;;7.70;;
68076;SDS011;54866;53.458;14.540;2022-12-10T09:27:43;11.80;;;5.40;;
68076;SDS011;54866;53.458;14.540;2022-12-10T09:30:13;13.40;;;7.70;;
68076;SDS011;54866;53.458;14.540;2022-12-10T09:32:43;14.10;;;8.70;;
68076;SDS011;54866;53.458;14.540;2022-12-10T09:35:13;13.80;;;8.70;;
68076;SDS011;54866;53.458;14.540;2022-12-10T09:37:43;15.20;;;9.70;;
68076;SDS011;54866;53.458;14.540;2022-12-10T09:40:15;10.30;;;7.60;;
68076;SDS011;54866;53.458;14.540;2022-12-10T09:42:50;13.40;;;7.70;;
68076;SDS011;54866;53.458;14.540;2022-12-10T09:45:30;9.10;;;4.30;;
68076;SDS011;54866;53.458;14.540;2022-12-10T09:48:06;15.50;;;8.70;;
68076;SDS011;54866;53.458;14.540;2022-12-10T09:50:48;13.40;;;8.60;;
68076;SDS011;54866;53.458;14.540;2022-12-10T09:53:23;14.20;;;9.60;;
68076;SDS011;54866;53.458;14.540;2022-12-10T09:55:55;15.70;;;9.30;;
68076;SDS011;54866;53.458;14.540;2022-12-10T09:58:28;11.70;;;6.70;;
68076;SDS011;54866;53.458;14.540;2022-12-10T10:00:59;14.80;;;8.50;;
68076;SDS011;54866;53.458;14.540;2022-12-10T10:03:31;13.60;;;9.00;;
68076;SDS011;54866;53.458;14.540;2022-12-10T10:06:05;10.60;;;6.50;;
68076;SDS011;54866;53.458;14.540;2022-12-10T10:11:09;15.20;;;9.20;;
68076;SDS011;54866;53.458;14.540;2022-12-10T10:13:44;10.70;;;6.90;;
68076;SDS011;54866;53.458;14.540;2022-12-10T10:16:20;14.70;;;9.20;;
68076;SDS011;54866;53.458;14.540;2022-12-10T10:18:56;16.00;;;10.80;;
68076;SDS011;54866;53.458;14.540;2022-12-10T10:21:28;13.40;;;8.20;;
68076;SDS011;54866;53.458;14.540;2022-12-10T10:24:01;11.60;;;7.30;;
68076;SDS011;54866;53.458;14.540;2022-12-10T10:26:32;11.30;;;6.60;;
68076;SDS011;54866;53.458;14.540;2022-12-10T10:29:04;10.70;;;6.40;;
68076;SDS011;54866;53.458;14.540;2022-12-10T10:31:38;11.00;;;6.40;;
68076;SDS011;54866;53.458;14.540;2022-12-10T10:34:13;12.30;;;6.70;;
68076;SDS011;54866;53.458;14.540;2022-12-10T10:36:46;11.60;;;7.70;;
68076;SDS011;54866;53.458;14.540;2022-12-10T10:39:24;12.00;;;7.80;;
68076;SDS011;54866;53.458;14.540;2022-12-10T10:41:56;16.60;;;11.00;;
68076;SDS011;54866;53.458;14.540;2022-12-10T10:44:28;13.70;;;7.00;;
68076;SDS011;54866;53.458;14.540;2022-12-10T10:47:03;12.90;;;8.40;;
68076;SDS011;54866;53.458;14.540;2022-12-10T10:49:54;12.50;;;5.80;;
68076;SDS011;54866;53.458;14.540;2022-12-10T10:52:26;14.30;;;8.50;;
68076;SDS011;54866;53.458;14.540;2022-12-10T10:54:57;9.60;;;6.80;;
68076;SDS011;54866;53.458;14.540;2022-12-10T10:57:29;11.00;;;7.20;;
68076;SDS011;54866;53.458;14.540;2022-12-10T11:00:05;12.20;;;7.40;;
68076;SDS011;54866;53.458;14.540;2022-12-10T11:02:45;13.20;;;6.90;;
68076;SDS011;54866;53.458;14.540;2022-12-10T11:05:17;9.40;;;6.40;;
68076;SDS011;54866;53.458;14.540;2022-12-10T11:07:58;7.50;;;4.40;;
68076;SDS011;54866;53.458;14.540;2022-12-10T11:10:28;8.90;;;5.20;;
68076;SDS011;54866;53.458;14.540;2022-12-10T11:13:03;11.90;;;6.20;;
68076;SDS011;54866;53.458;14.540;2022-12-10T11:15:34;10.20;;;5.90;;
68076;SDS011;54866;53.458;14.540;2022-12-10T11:18:20;10.50;;;6.50;;
68076;SDS011;54866;53.458;14.540;2022-12-10T11:21:00;14.20;;;7.90;;
68076;SDS011;54866;53.458;14.540;2022-12-10T11:23:37;10.70;;;6.90;;
68076;SDS011;54866;53.458;14.540;2022-12-10T11:26:11;11.20;;;7.40;;
68076;SDS011;54866;53.458;14.540;2022-12-10T11:28:54;13.90;;;8.50;;
68076;SDS011;54866;53.458;14.540;2022-12-10T11:34:20;13.40;;;10.20;;
68076;SDS011;54866;53.458;14.540;2022-12-10T11:37:00;12.80;;;8.30;;
68076;SDS011;54866;53.458;14.540;2022-12-10T11:39:53;7.50;;;5.80;;
68076;SDS011;54866;53.458;14.540;2022-12-10T11:42:33;13.40;;;6.10;;
68076;SDS011;54866;53.458;14.540;2022-12-10T11:45:15;11.30;;;7.80;;
68076;SDS011;54866;53.458;14.540;2022-12-10T11:47:54;11.00;;;6.60;;
68076;SDS011;54866;53.458;14.540;2022-12-10T11:50:36;15.00;;;9.10;;
68076;SDS011;54866;53.458;14.540;2022-12-10T11:53:19;13.90;;;7.50;;
68076;SDS011;54866;53.458;14.540;2022-12-10T11:56:05;11.60;;;7.10;;
68076;SDS011;54866;53.458;14.540;2022-12-10T11:58:48;10.60;;;7.00;;
68076;SDS011;54866;53.458;14.540;2022-12-10T12:01:43;10.50;;;5.40;;
68076;SDS011;54866;53.458;14.540;2022-12-10T12:04:42;13.40;;;8.80;;
68076;SDS011;54866;53.458;14.540;2022-12-10T12:07:32;11.80;;;7.00;;
68076;SDS011;54866;53.458;14.540;2022-12-10T12:13:08;9.50;;;6.60;;
68076;SDS011;54866;53.458;14.540;2022-12-10T12:15:43;8.00;;;4.50;;
68076;SDS011;54866;53.458;14.540;2022-12-10T12:18:18;8.10;;;4.90;;
68076;SDS011;54866;53.458;14.540;2022-12-10T12:20:51;10.80;;;6.00;;
68076;SDS011;54866;53.458;14.540;2022-12-10T12:23:26;7.90;;;4.80;;
68076;SDS011;54866;53.458;14.540;2022-12-10T12:26:04;9.10;;;5.50;;
68076;SDS011;54866;53.458;14.540;2022-12-10T12:28:40;6.40;;;3.50;;
68076;SDS011;54866;53.458;14.540;2022-12-10T12:31:15;7.10;;;3.70;;
68076;SDS011;54866;53.458;14.540;2022-12-10T12:33:50;9.40;;;4.90;;
68076;SDS011;54866;53.458;14.540;2022-12-10T12:36:25;6.00;;;3.90;;
68076;SDS011;54866;53.458;14.540;2022-12-10T12:38:59;7.90;;;4.90;;
68076;SDS011;54866;53.458;14.540;2022-12-10T12:41:34;8.20;;;5.00;;
68076;SDS011;54866;53.458;14.540;2022-12-10T12:44:12;7.30;;;4.80;;
68076;SDS011;54866;53.458;14.540;2022-12-10T12:46:51;7.00;;;4.30;;
68076;SDS011;54866;53.458;14.540;2022-12-10T12:49:22;6.20;;;3.80;;
68076;SDS011;54866;53.458;14.540;2022-12-10T12:51:57;6.40;;;4.70;;
68076;SDS011;54866;53.458;14.540;2022-12-10T12:54:33;6.80;;;4.40;;
68076;SDS011;54866;53.458;14.540;2022-12-10T12:57:05;7.00;;;3.50;;
68076;SDS011;54866;53.458;14.540;2022-12-10T12:59:44;7.70;;;3.90;;
68076;SDS011;54866;53.458;14.540;2022-12-10T13:02:32;5.70;;;3.60;;
68076;SDS011;54866;53.458;14.540;2022-12-10T13:05:23;7.50;;;5.00;;
68076;SDS011;54866;53.458;14.540;2022-12-10T13:10:54;8.20;;;5.10;;
68076;SDS011;54866;53.458;14.540;2022-12-10T13:13:32;8.80;;;4.50;;
68076;SDS011;54866;53.458;14.540;2022-12-10T13:19:25;8.00;;;4.80;;
68076;SDS011;54866;53.458;14.540;2022-12-10T13:21:58;7.70;;;4.80;;
68076;SDS011;54866;53.458;14.540;2022-12-10T13:24:45;9.40;;;6.10;;
68076;SDS011;54866;53.458;14.540;2022-12-10T13:27:30;11.10;;;6.50;;
68076;SDS011;54866;53.458;14.540;2022-12-10T13:30:02;9.30;;;6.10;;
68076;SDS011;54866;53.458;14.540;2022-12-10T13:33:02;9.00;;;6.30;;
68076;SDS011;54866;53.458;14.540;2022-12-10T13:35:48;9.30;;;6.40;;
68076;SDS011;54866;53.458;14.540;2022-12-10T13:38:24;10.90;;;6.10;;
68076;SDS011;54866;53.458;14.540;2022-12-10T13:41:00;10.70;;;7.10;;
68076;SDS011;54866;53.458;14.540;2022-12-10T13:46:49;10.70;;;5.60;;
68076;SDS011;54866;53.458;14.540;2022-12-10T13:49:22;10.00;;;6.00;;
68076;SDS011;54866;53.458;14.540;2022-12-10T13:51:55;11.40;;;6.40;;
68076;SDS011;54866;53.458;14.540;2022-12-10T13:54:38;9.80;;;5.60;;
68076;SDS011;54866;53.458;14.540;2022-12-10T13:57:30;8.00;;;5.80;;
68076;SDS011;54866;53.458;14.540;2022-12-10T14:00:15;10.20;;;6.70;;
68076;SDS011;54866;53.458;14.540;2022-12-10T14:05:36;11.70;;;6.50;;
68076;SDS011;54866;53.458;14.540;2022-12-10T14:08:18;12.10;;;7.40;;
68076;SDS011;54866;53.458;14.540;2022-12-10T14:10:52;13.60;;;7.70;;
68076;SDS011;54866;53.458;14.540;2022-12-10T14:13:24;12.90;;;7.50;;
68076;SDS011;54866;53.458;14.540;2022-12-10T14:16:01;13.00;;;7.40;;
68076;SDS011;54866;53.458;14.540;2022-12-10T14:18:37;12.60;;;7.70;;
68076;SDS011;54866;53.458;14.540;2022-12-10T14:21:10;12.30;;;9.00;;
68076;SDS011;54866;53.458;14.540;2022-12-10T14:23:44;13.70;;;8.50;;
68076;SDS011;54866;53.458;14.540;2022-12-10T14:26:17;13.70;;;7.90;;
68076;SDS011;54866;53.458;14.540;2022-12-10T14:28:48;11.00;;;7.30;;
68076;SDS011;54866;53.458;14.540;2022-12-10T14:31:23;10.40;;;6.30;;
68076;SDS011;54866;53.458;14.540;2022-12-10T14:33:58;13.20;;;7.00;;
68076;SDS011;54866;53.458;14.540;2022-12-10T14:36:32;13.40;;;6.80;;
68076;SDS011;54866;53.458;14.540;2022-12-10T14:39:06;10.00;;;6.10;;
68076;SDS011;54866;53.458;14.540;2022-12-10T14:41:42;16.60;;;8.80;;
68076;SDS011;54866;53.458;14.540;2022-12-10T14:44:13;19.20;;;10.50;;
68076;SDS011;54866;53.458;14.540;2022-12-10T19:04:32;16.70;;;10.50;;
68076;SDS011;54866;53.458;14.540;2022-12-10T19:07:02;14.10;;;9.30;;
68076;SDS011;54866;53.458;14.540;2022-12-10T19:09:32;16.60;;;9.10;;
68076;SDS011;54866;53.458;14.540;2022-12-10T19:12:04;16.40;;;8.80;;
68076;SDS011;54866;53.458;14.540;2022-12-10T19:14:34;15.90;;;9.60;;
68076;SDS011;54866;53.458;14.540;2022-12-10T19:17:04;16.30;;;10.00;;
68076;SDS011;54866;53.458;14.540;2022-12-10T19:19:34;17.00;;;9.90;;
68076;SDS011;54866;53.458;14.540;2022-12-10T19:22:03;13.40;;;8.50;;
68076;SDS011;54866;53.458;14.540;2022-12-10T19:24:33;19.10;;;8.70;;
68076;SDS011;54866;53.458;14.540;2022-12-10T19:27:03;16.80;;;9.20;;
68076;SDS011;54866;53.458;14.540;2022-12-10T19:29:32;16.40;;;8.70;;
68076;SDS011;54866;53.458;14.540;2022-12-10T19:32:05;18.30;;;9.60;;
68076;SDS011;54866;53.458;14.540;2022-12-10T19:34:35;15.90;;;9.90;;
68076;SDS011;54866;53.458;14.540;2022-12-10T19:37:04;15.50;;;8.90;;
68076;SDS011;54866;53.458;14.540;2022-12-10T19:39:36;15.90;;;8.10;;
68076;SDS011;54866;53.458;14.540;2022-12-10T19:42:06;13.90;;;9.90;;
68076;SDS011;54866;53.458;14.540;2022-12-10T19:44:36;16.30;;;9.80;;
68076;SDS011;54866;53.458;14.540;2022-12-10T19:47:08;16.50;;;9.30;;
68076;SDS011;54866;53.458;14.540;2022-12-10T19:49:43;12.60;;;7.70;;
68076;SDS011;54866;53.458;14.540;2022-12-10T19:52:13;16.20;;;8.90;;
68076;SDS011;54866;53.458;14.540;2022-12-10T19:54:42;13.60;;;7.00;;
68076;SDS011;54866;53.458;14.540;2022-12-10T19:57:12;16.10;;;9.60;;
68076;SDS011;54866;53.458;14.540;2022-12-10T19:59:43;15.50;;;9.00;;
68076;SDS011;54866;53.458;14.540;2022-12-10T20:02:13;14.20;;;9.20;;
68076;SDS011;54866;53.458;14.540;2022-12-10T20:04:42;14.10;;;8.90;;
68076;SDS011;54866;53.458;14.540;2022-12-10T20:07:12;14.70;;;9.00;;
68076;SDS011;54866;53.458;14.540;2022-12-10T20:09:42;13.90;;;9.20;;